Scottish Airport Reports

Civil airfields updated at H+20 and H+50
RAF airfields updated at H+50 only

EGPD - Aberdeen
Distance from station: NNE 19mi, 31km
Updated: 31/07/2021 02:50
Light rain, Overcast
Light rain, Overcast
 Wind from NNW
Wind: NNW 8 mph , 13 km/h
Temperature: 12°C
Dew Point: 12°C
Humidity: 100%
Barometer: 1005 hPa
Summary: Light rain
Clouds: Overcast
Visibility: 4 miles , 7 km
Cloud details: Mostly cloudy 400 ft
Overcast 800 ft
2021/07/31 01:50 EGPD 310150Z AUTO 34007KT 7000 -RA BKN004 OVC008 12/12 Q1005 TEMPO 4000 BKN006
EGPN - Dundee
Distance from station: SW 41mi, 66km
Updated: 30/07/2021 20:50
NOT Current
Nearby showers, Mostly cloudy
Nearby showers, Mostly cloudy
 Wind from E
Wind: E 3 mph , 6 km/h
Temperature: 15°C
Dew Point: 14°C
Humidity: 94%
Barometer: 1005 hPa
Summary: Nearby Showers
Clouds: Mostly cloudy
Visibility: 4 miles , 6 km
Cloud details: Few Clouds 1000 ft
Partly cloudy 2400 ft
Mostly cloudy 4700 ft
2021/07/30 19:50 EGPN 301950Z 08003KT 6000 VCSH FEW010 SCT024 BKN047 15/14 Q1005
 
EGQS - RAF Lossiemouth
Distance from station: NNW 63mi, 102km
Updated: 31/07/2021 02:50
Mostly cloudy
Mostly cloudy
 Wind from N
Wind: N 12 mph , 19 km/h
Temperature: 13°C
Dew Point: 9°C
Humidity: 77%
Barometer: 1006 hPa
Clouds: Mostly cloudy
Visibility: 6 miles , 10 km
Cloud details: Few Clouds 1200 ft
Mostly cloudy 1700 ft
2021/07/31 01:50 EGQS 310150Z 36010KT 9999 FEW012 BKN017 13/09 Q1006 RMK WHT
EGPE - Inverness
Distance from station: WNW 73mi, 117km
Updated: 31/07/2021 02:50
Light drizzle, Overcast
Light drizzle, Overcast
 Wind from NNE
Wind: NNE 7 mph , 11 km/h
Temperature: 12°C
Dew Point: 11°C
Humidity: 94%
Barometer: 1006 hPa
Summary: Light Drizzle
Clouds: Overcast
Visibility: 2 miles , 4 km
Cloud details: Mostly cloudy 500 ft
Overcast 1800 ft
2021/07/31 01:50 EGPE 310150Z 02006KT 3900 -DZ BKN005 OVC018 12/11 Q1006
 
EGPH - Edinburgh
Distance from station: SSW 77mi, 125km
Updated: 31/07/2021 02:50
Mostly cloudy
Mostly cloudy
 Wind from W
Wind: W 3 mph , 6 km/h
Temperature: 15°C
Dew Point: 15°C
Humidity: 100%
Barometer: 1004 hPa
Clouds: Mostly cloudy
Visibility: 6 miles , 10 km
Cloud details: Partly cloudy 1100 ft
Mostly cloudy 3500 ft
2021/07/31 01:50 EGPH 310150Z 26003KT 9999 SCT011 BKN035 15/15 Q1004
EGPC - Wick
Distance from station: NNW 107mi, 172km
Updated: 31/07/2021 02:50
Overcast
Overcast
 Wind from NW
Wind: NW 8 mph , 13 km/h
Temperature: 11°C
Dew Point: 9°C
Humidity: 88%
Barometer: 1006 hPa
Clouds: Overcast
Visibility: 6 miles , 10 km
Cloud details: Overcast 1900 ft
2021/07/31 01:50 EGPC 310150Z AUTO 32007KT 9999 OVC019/// 11/09 Q1006
 
EGPF - Glasgow
Distance from station: SW 107mi, 172km
Updated: 31/07/2021 02:50
Clear
Clear
 Wind from SW
Wind: SW 7 mph , 11 km/h
Temperature: 11°C
Dew Point: 10°C
Humidity: 94%
Barometer: 1006 hPa
Clouds: Clear
Visibility: 6 miles , 10 km
2021/07/31 01:50 EGPF 310150Z AUTO 23006KT 9999 NCD 11/10 Q1006
EGPK - Prestwick
Distance from station: SW 130mi, 209km
Updated: 31/07/2021 02:50
Partly cloudy
Partly cloudy
 Wind from NW
Wind: NW 8 mph , 13 km/h
Temperature: 14°C
Dew Point: 12°C
Humidity: 88%
Barometer: 1006 hPa
Clouds: Partly cloudy
Visibility: 6 miles , 10 km
Cloud details: Few Clouds 1200 ft
Partly cloudy 2900 ft
2021/07/31 01:50 EGPK 310150Z 32007KT 9999 FEW012 SCT029 14/12 Q1006
 
EGPA - Kirkwall, Orkney
Distance from station: N 140mi, 225km
Updated: 31/07/2021 02:50
Overcast
Overcast
 Wind from N
Wind: N 13 mph , 20 km/h
Temperature: 11°C
Dew Point: 9°C
Humidity: 88%
Barometer: 1006 hPa
Clouds: Overcast
Visibility: 6 miles , 10 km
Cloud details: Few Clouds 800 ft
Mostly cloudy 1400 ft
Overcast 1900 ft
2021/07/31 01:50 EGPA 310150Z AUTO 35011KT 9999 FEW008/// BKN014/// OVC019/// 11/09 Q1006
EGPO - Stornoway, Outer Hebrides
Distance from station: WNW 169mi, 273km
Updated: 31/07/2021 02:50
Mostly cloudy
Mostly cloudy
 Wind from NNW
Wind: NNW 10 mph , 17 km/h
Temperature: 11°C
Dew Point: 9°C
Humidity: 88%
Barometer: 1008 hPa
Clouds: Mostly cloudy
Visibility: 6 miles , 10 km
Cloud details: Mostly cloudy 1600 ft
2021/07/31 01:50 EGPO 310150Z 33009KT 9999 BKN016 11/09 Q1008
 
EGPI - Islay, Inner Hebrides
Distance from station: WSW 172mi, 276km
Updated: 31/07/2021 02:20
Mostly cloudy
Mostly cloudy
 Wind from WNW
Wind: WNW 10 mph , 17 km/h
Temperature: 13°C
Dew Point: 13°C
Humidity: 100%
Barometer: 1007 hPa
Clouds: Mostly cloudy
Visibility: 6 miles , 10 km
Cloud details: Mostly cloudy 2800 ft
2021/07/31 01:20 EGPI 310120Z AUTO 30009KT 9999 BKN028/// 13/13 Q1007
EGPU - Tiree, Inner Hebrides
Distance from station: W 172mi, 276km
Updated: 31/07/2021 02:20
Mostly cloudy
Mostly cloudy
 Wind from N
Wind: N 12 mph , 19 km/h
Temperature: 13°C
Dew Point: 12°C
Humidity: 94%
Barometer: 1007 hPa
Clouds: Mostly cloudy
Visibility: 6 miles , 10 km
Cloud details: Mostly cloudy 700 ft
Mostly cloudy 2800 ft
2021/07/31 01:20 EGPU 310120Z AUTO 35010KT 9999 BKN007/// BKN028/// 13/12 Q1007
 
EGPB - Sumburgh, Shetland
Distance from station: NNE 208mi, 332km
Updated: 31/07/2021 02:50
Overcast
Overcast
 Wind from N
Wind: N 8 mph , 13 km/h
Temperature: 10°C
Wind Chill: 8°C
Dew Point: 9°C
Humidity: 94%
Barometer: 1004 hPa
Clouds: Overcast
Visibility: 6 miles , 10 km
Cloud details: Overcast 1900 ft
2021/07/31 01:50 EGPB 310150Z AUTO 35007KT 9999 OVC019/// 10/09 Q1004
-->